Metar Cercanos

 

LEPA - Palma De Mallorc, Spain
Distance from station: ONO 38km
Actualización: 13/12/2018 15:00
Muy nuboso
Muy nuboso
 Viento del ONO
Viento: ONO 11 km/h
Temperatura: 14°C
Rocío: 12°C
Humedad: 88%
Barómetro: 1004 hPa
Clouds: Muy nuboso
Visibility: 10 km
Cloud details: Few Clouds 549 m
Muy nuboso 853 m
2018/12/13 14:00 LEPA 131400Z 29006KT 230V340 9999 FEW018 BKN028 14/12 Q1004 NOSIG
LEMH - Mahon/Menorca Is, Spain
Distance from station: ENE 105km
Actualización: 13/12/2018 15:00
Lluvia débil, Few clouds
Lluvia débil, Few clouds
 Viento del O
Viento: O 28 km/h
Temperatura: 13°C
Rocío: 10°C
Humedad: 82%
Barómetro: 1004 hPa
Resumen: Lluvia débil
Clouds: Few Clouds
Visibility: 10 km
Cloud details: Few Clouds 610 m
2018/12/13 14:00 LEMH 131400Z 26015KT 210V290 9999 -RA FEW020 13/10 Q1004
 
LEIB - Ibiza/Es Codola, Spain
Distance from station: OSO 165km
Actualización: 13/12/2018 15:00
Lluvia débil, Few clouds
Lluvia débil, Few clouds
 Viento del SO
Viento: SO 19 km/h
Temperatura: 14°C
Rocío: 12°C
Humedad: 88%
Barómetro: 1006 hPa
Resumen: Lluvia débil
Clouds: Few Clouds
Visibility: 5 km
Cloud details: Few Clouds 1219 m
2018/12/13 14:00 LEIB 131400Z 23010KT 5000 -RA FEW040 14/12 Q1006 TEMPO 4000 SHRA FEW018TCU BKN020
LEBL - Barcelona Airpor, Spain
Distance from station: NNO 225km
Actualización: 13/12/2018 15:00
Lluvia débil, Few clouds
Lluvia débil, Few clouds
 Viento del NNO
Viento: NNO 9 km/h
Temperatura: 11°C
Rocío: 9°C
Humedad: 88%
Barómetro: 1004 hPa
Resumen: Lluvia débil
Clouds: Few Clouds
Visibility: 6 km
Cloud details: Few Clouds 549 m
2018/12/13 14:00 LEBL 131400Z 34005KT 270V010 6000 -RA FEW018 11/09 Q1004 NOSIG
 
LEVC - Valencia (civ/Mi, Spain
Distance from station: NO 188km
Actualización: 13/12/2018 15:00
Parcialmente nuboso
Parcialmente nuboso
 Viento del SSO
Viento: SSO 15 km/h
Temperatura: 15°C
Rocío: 10°C
Humedad: 72%
Barómetro: 1003 hPa
Clouds: Parcialmente nuboso
Visibility: 10 km
Cloud details: Few Clouds 610 m
Parcialmente nuboso 1219 m
2018/12/13 14:00 LEVC 131400Z 20008KT 170V230 9999 FEW020 SCT040 15/10 Q1003 NOSIG
LEGE - Gerona/Costa Bra, Spain
Distance from station: N 276km
Actualización: 13/12/2018 15:00
Lluvia intensa, Muy nuboso
Lluvia intensa, Muy nuboso
 Viento del SSO
Viento: SSO 4 km/h
Temperatura: 10°C
Rocío: 10°C
Humedad: 100%
Barómetro: 1003 hPa
Resumen: Lluvia intensa
Clouds: Muy nuboso
Visibility: 5 km
Cloud details: Muy nuboso 1067 m
Muy nuboso 1372 m
2018/12/13 14:00 LEGE 131400Z 20002KT 4500 +RA BKN035 BKN045 10/10 Q1003
 
LEAL - Alicante/El Alte, Spain
Distance from station: OSO 344km
Actualización: 13/12/2018 15:00
Lluvia débil, Parcialmente nuboso
Lluvia débil, Parcialmente nuboso
 Viento del varies
Viento: varies 2 km/h
Temperatura: 12°C
Rocío: 10°C
Humedad: 88%
Barómetro: 1005 hPa
Resumen: Lluvia débil
Clouds: Parcialmente nuboso
Visibility: 10 km
Cloud details: Few Clouds 366 m
Parcialmente nuboso 1829 m
2018/12/13 14:00 LEAL 131400Z VRB01KT 9999 -RA FEW012 SCT060 12/10 Q1005 BECMG NSW
LEAM - Almeria Airport, Spain
Distance from station: SSO 56km
Actualización: 13/12/2018 15:00
Muy nuboso
Muy nuboso
 Viento del ONO
Viento: ONO 13 km/h
Temperatura: 17°C
Rocío: 7°C
Humedad: 52%
Barómetro: 1007 hPa
Clouds: Muy nuboso
Visibility: 10 km
Cloud details: Few Clouds 914 m
Parcialmente nuboso 1372 m
Muy nuboso 1524 m
2018/12/13 14:00 LEAM 131400Z 29007KT 230V330 9999 FEW030 SCT045 BKN050 17/07 Q1007
 
LEZG - Zaragoza (mil/Ci, Spain
Distance from station: NO 431km
Actualización: 13/12/2018 15:00
Lluvia débil, Cubierto
Lluvia débil, Cubierto
 Viento del calm
Viento: Calma
Temperatura: 8°C
Rocío: 8°C
Humedad: 100%
Barómetro: 1005 hPa
Resumen: Lluvia débil
Clouds: Cubierto
Visibility: 1 km
Cloud details: Cubierto 91 m
2018/12/13 14:00 LEZG 131400Z 00000KT 1400 R30R/P2000 -RA OVC003 08/08 Q1005
LEMD - Madrid/Barajas, Spain
Distance from station: ONO 234km
Actualización: 13/12/2018 15:00
Muy nuboso
Muy nuboso
 Viento del O
Viento: O 33 km/h
Temperatura: 9°C
Sensación frio: 5°C
Rocío: 3°C
Humedad: 66%
Barómetro: 1007 hPa
Clouds: Muy nuboso
Visibility: 10 km
Cloud details: Few Clouds 1219 m
Muy nuboso 2134 m
2018/12/13 14:00 LEMD 131400Z 27018KT 9999 FEW040 BKN070 09/03 Q1007 R88/29//95 NOSIG
 
LEGR - Granada Airport, Spain
Distance from station: OSO 62km
Actualización: 13/12/2018 15:00
Parcialmente nuboso
Parcialmente nuboso
 Viento del NO
Viento: NO 28 km/h, Racha: 48 km/h
Temperatura: 10°C
Sensación frio: 7°C
Rocío: 4°C
Humedad: 67%
Barómetro: 1012 hPa
Clouds: Parcialmente nuboso
Visibility: 10 km
Cloud details: Few Clouds 762 m
Parcialmente nuboso 1524 m
2018/12/13 14:00 LEGR 131400Z 32015G26KT 280V350 9999 FEW025TCU SCT050 10/04 Q1012
LEMG - Malaga (civ/Mil), Spain
Distance from station: OSO 227km
Actualización: 13/12/2018 15:00
Parcialmente nuboso
Parcialmente nuboso
 Viento del NO
Viento: NO 41 km/h, Racha: 69 km/h
Temperatura: 16°C
Rocío: 5°C
Humedad: 48%
Barómetro: 1012 hPa
Clouds: Parcialmente nuboso
Visibility: 10 km
Cloud details: Few Clouds 762 m
Parcialmente nuboso 1524 m
2018/12/13 14:00 LEMG 131400Z 31022G37KT 9999 FEW025 SCT050 16/05 Q1012 NOSIG
 
LEZL - Sevilla (civ/Mil, Spain
Distance from station: S 318km
Actualización: 13/12/2018 15:00
Few Clouds
Few Clouds
 Viento del ONO
Viento: ONO 33 km/h
Temperatura: 16°C
Rocío: 5°C
Humedad: 48%
Barómetro: 1015 hPa
Clouds: Few Clouds
Visibility: 10 km
Cloud details: Few Clouds 1463 m
2018/12/13 14:00 LEZL 131400Z 30018KT 9999 FEW048 16/05 Q1015 NOSIG
LEVT - Vitoria, Spain
Distance from station: NO 226km
Actualización: 13/12/2018 15:00
Lluvia débil, Muy nuboso
Lluvia débil, Muy nuboso
 Viento del ONO
Viento: ONO 9 km/h
Temperatura: 7°C
Sensación frio: 6°C
Rocío: 5°C
Humedad: 87%
Barómetro: 1007 hPa
Resumen: Lluvia débil
Clouds: Muy nuboso
Visibility: 10 km
Cloud details: Few Clouds 488 m
Muy nuboso 914 m
2018/12/13 14:00 LEVT 131400Z 29005KT 9999 -RA FEW016 BKN030 07/05 Q1007
 
LEBB - Bilbao/Sondica, Spain
Distance from station: NNO 235km
Actualización: 13/12/2018 15:00
Muy nuboso
Muy nuboso
 Viento del ONO
Viento: ONO 26 km/h, Racha: 44 km/h
Temperatura: 12°C
Rocío: 8°C
Humedad: 77%
Barómetro: 1008 hPa
Clouds: Muy nuboso
Visibility: 10 km
Cloud details: Muy nuboso 853 m
Muy nuboso 1158 m
2018/12/13 14:00 LEBB 131400Z 30014G24KT 260V330 9999 BKN028 BKN038 12/08 Q1008 TEMPO RA
LESO - San Sebastian/Fu, Spain
Distance from station: N 231km
Actualización: 13/12/2018 15:00
Lluvia intensa, Muy nuboso
Lluvia intensa, Muy nuboso
 Viento del OSO
Viento: OSO 17 km/h
Temperatura: 10°C
Sensación frio: 8°C
Rocío: 9°C
Humedad: 94%
Barómetro: 1007 hPa
Resumen: Lluvia intensa
Clouds: Muy nuboso
Visibility: 6 km
Cloud details: Parcialmente nuboso 396 m
Muy nuboso 549 m
2018/12/13 14:00 LESO 131400Z 24009KT 200V290 6000 +RA SCT013 BKN018 10/09 Q1007
 
LEVD - Valladolid(Mil/C, Spain
Distance from station: ONO 239km
Actualización: 13/12/2018 15:00
Parcialmente nuboso
Parcialmente nuboso
 Viento del ONO
Viento: ONO 41 km/h, Racha: 59 km/h
Temperatura: 7°C
Sensación frio: 2°C
Rocío: 1°C
Humedad: 66%
Barómetro: 1009 hPa
Clouds: Parcialmente nuboso
Visibility: 10 km
Cloud details: Parcialmente nuboso 884 m
2018/12/13 14:00 LEVD 131400Z 30022G32KT 280V340 9999 SCT029 07/01 Q1009
LESA - Salamanca (civ/M, Spain
Distance from station: ONO 349km
Actualización: 13/12/2018 15:00
Parcialmente nuboso
Parcialmente nuboso
 Viento del NO
Viento: NO 41 km/h, Racha: 65 km/h
Temperatura: 7°C
Sensación frio: 2°C
Rocío: 2°C
Humedad: 71%
Barómetro: 1011 hPa
Clouds: Parcialmente nuboso
Visibility: 10 km
Cloud details: Parcialmente nuboso 853 m
2018/12/13 14:00 LESA 131400Z 31022G35KT 280V340 9999 SCT028 07/02 Q1011
 
LEXJ - Santander/Paraya, Spain
Distance from station: NNO 247km
Actualización: 13/12/2018 15:00
Muy nuboso
Muy nuboso
 Viento del ONO
Viento: ONO 48 km/h, Racha: 72 km/h
Temperatura: 12°C
Rocío: 9°C
Humedad: 82%
Barómetro: 1009 hPa
Clouds: Muy nuboso
Visibility: 9 km
Cloud details: Parcialmente nuboso 549 m
Muy nuboso 1219 m
2018/12/13 14:00 LEXJ 131400Z 29026G39KT 9000 SCT018 BKN040 12/09 Q1009 RERA
LEAS - Asturias/Aviles, Spain
Distance from station: NO 214km
Actualización: 13/12/2018 15:00
Parcialmente nuboso
Parcialmente nuboso
 Viento del O
Viento: O 31 km/h
Temperatura: 12°C
Rocío: 7°C
Humedad: 72%
Barómetro: 1012 hPa
Clouds: Parcialmente nuboso
Visibility: 10 km
Cloud details: Few Clouds 853 m
Parcialmente nuboso 1189 m
2018/12/13 14:00 LEAS 131400Z 28017KT 9999 FEW028TCU SCT039 12/07 Q1012 TEMPO SHRA
 
LECO - La Coruna/Alvedr, Spain
Distance from station: ONO 222km
Actualización: 13/12/2018 15:00
Muy nuboso
Muy nuboso
 Viento del NO
Viento: NO 20 km/h
Temperatura: 12°C
Rocío: 7°C
Humedad: 72%
Barómetro: 1015 hPa
Clouds: Muy nuboso
Visibility: 10 km
Cloud details: Parcialmente nuboso 732 m
Muy nuboso 823 m
2018/12/13 14:00 LECO 131400Z 31011KT 260V020 9999 SCT024TCU BKN027 12/07 Q1015 TEMPO RA
LEVX - Vigo/Peinador, Spain
Distance from station: O 214km
Actualización: 13/12/2018 15:00
Muy nuboso
Muy nuboso
 Viento del NNO
Viento: NNO 17 km/h, Racha: 35 km/h
Temperatura: 9°C
Sensación frio: 7°C
Rocío: 6°C
Humedad: 82%
Barómetro: 1016 hPa
Clouds: Muy nuboso
Visibility: 9 km
Cloud details: Few Clouds 792 m
Muy nuboso 914 m
2018/12/13 14:00 LEVX 131400Z 33009G19KT 290V010 9000 FEW026TCU BKN030 09/06 Q1016 RERA TEMPO SHRA